createdAt,value
2023-02-11T00:01:16.236Z,9.90
2023-02-11T00:03:42.741Z,10.07
2023-02-11T00:06:11.483Z,13.15
2023-02-11T00:08:38.649Z,12.05
2023-02-11T00:11:05.516Z,13.48
2023-02-11T00:13:32.318Z,11.15
2023-02-11T00:15:58.766Z,14.90
2023-02-11T00:18:25.224Z,12.48
2023-02-11T00:20:51.697Z,12.52
2023-02-11T00:23:18.076Z,15.23
2023-02-11T00:25:45.584Z,10.73
2023-02-11T00:28:12.722Z,10.30
2023-02-11T00:30:39.354Z,11.57
2023-02-11T00:33:05.826Z,13.38
2023-02-11T00:35:32.448Z,14.18
2023-02-11T00:37:59.011Z,13.27
2023-02-11T00:40:25.448Z,12.85
2023-02-11T00:42:51.985Z,11.38
2023-02-11T00:45:18.492Z,9.50
2023-02-11T00:47:44.820Z,13.18
2023-02-11T00:50:11.170Z,8.02
2023-02-11T00:52:37.536Z,12.45
2023-02-11T00:55:04.144Z,10.48
2023-02-11T00:57:30.718Z,17.40
2023-02-11T00:59:57.262Z,11.80
2023-02-11T01:02:23.635Z,15.82
2023-02-11T01:04:51.002Z,10.23
2023-02-11T01:07:18.753Z,18.05
2023-02-11T01:09:45.159Z,12.10
2023-02-11T01:12:11.567Z,9.70
2023-02-11T01:14:38.318Z,11.43
2023-02-11T01:17:05.971Z,12.82
2023-02-11T01:19:32.422Z,9.15
2023-02-11T01:21:58.956Z,9.30
2023-02-11T01:24:26.594Z,13.00
2023-02-11T01:26:53.010Z,12.57
2023-02-11T01:29:19.595Z,18.10
2023-02-11T01:31:46.022Z,16.00
2023-02-11T01:34:12.491Z,15.07
2023-02-11T01:36:38.806Z,10.25
2023-02-11T01:39:05.159Z,17.60
2023-02-11T01:41:31.898Z,15.50
2023-02-11T01:43:58.278Z,14.10
2023-02-11T01:46:30.908Z,16.00
2023-02-11T01:49:18.038Z,11.50
2023-02-11T01:51:50.623Z,10.73
2023-02-11T01:54:21.511Z,13.00
2023-02-11T01:56:52.384Z,24.15
2023-02-11T01:59:25.683Z,9.43
2023-02-11T02:01:57.764Z,11.38
2023-02-11T02:04:28.618Z,16.00
2023-02-11T02:07:10.809Z,15.77
2023-02-11T02:09:43.129Z,15.32
2023-02-11T02:12:10.065Z,12.68
2023-02-11T02:14:42.618Z,14.40
2023-02-11T02:17:35.955Z,9.27
2023-02-11T02:20:48.318Z,13.88
2023-02-11T02:26:16.949Z,8.60
2023-02-11T02:29:17.553Z,10.40
2023-02-11T02:32:10.169Z,15.30
2023-02-11T02:34:44.369Z,13.93
2023-02-11T02:37:20.126Z,14.55
2023-02-11T02:39:50.286Z,21.15
2023-02-11T02:42:18.500Z,11.45
2023-02-11T02:44:50.138Z,9.10
2023-02-11T02:47:16.682Z,11.05
2023-02-11T02:49:43.131Z,13.02
2023-02-11T02:52:24.178Z,11.75
2023-02-11T02:54:56.722Z,19.13
2023-02-11T02:57:29.246Z,12.50
2023-02-11T03:00:16.982Z,14.77
2023-02-11T03:03:12.358Z,15.82
2023-02-11T03:05:46.720Z,12.93
2023-02-11T03:08:23.822Z,13.68
2023-02-11T03:10:52.460Z,17.60
2023-02-11T03:13:22.443Z,16.08
2023-02-11T03:15:53.827Z,13.40
2023-02-11T03:18:24.584Z,14.20
2023-02-11T03:20:54.025Z,14.00
2023-02-11T03:23:32.774Z,11.73
2023-02-11T03:26:10.328Z,13.55
2023-02-11T03:28:55.579Z,13.55
2023-02-11T03:31:30.958Z,12.18
2023-02-11T03:34:09.449Z,12.23
2023-02-11T03:36:41.382Z,14.93
2023-02-11T03:39:11.054Z,15.82
2023-02-11T03:41:38.901Z,16.23
2023-02-11T03:44:07.367Z,19.90
2023-02-11T03:46:37.665Z,16.13
2023-02-11T03:49:09.516Z,17.48
2023-02-11T03:51:37.407Z,16.00
2023-02-11T03:54:08.765Z,20.00
2023-02-11T03:56:41.678Z,19.52
2023-02-11T03:59:08.343Z,17.08
2023-02-11T04:01:34.888Z,20.13
2023-02-11T04:04:02.652Z,15.98
2023-02-11T04:06:29.067Z,18.05
2023-02-11T04:08:55.470Z,17.48
2023-02-11T04:11:21.872Z,16.40
2023-02-11T04:13:49.268Z,21.88
2023-02-11T04:16:15.685Z,13.75
2023-02-11T04:18:42.081Z,19.05
2023-02-11T04:21:08.539Z,21.65
2023-02-11T04:23:34.886Z,21.17
2023-02-11T04:26:01.583Z,17.45
2023-02-11T04:28:27.944Z,22.92
2023-02-11T04:30:54.784Z,22.60
2023-02-11T04:33:21.597Z,23.45
2023-02-11T04:35:48.441Z,17.50
2023-02-11T04:38:16.522Z,20.58
2023-02-11T04:40:43.006Z,22.23
2023-02-11T04:43:09.577Z,22.10
2023-02-11T04:45:36.436Z,23.58
2023-02-11T04:48:03.444Z,20.15
2023-02-11T04:50:30.156Z,20.77
2023-02-11T04:52:56.684Z,18.02
2023-02-11T04:55:24.108Z,21.98
2023-02-11T04:57:50.451Z,17.52
2023-02-11T05:00:17.013Z,25.70
2023-02-11T05:02:43.440Z,26.05
2023-02-11T05:05:10.039Z,23.75
2023-02-11T05:07:36.466Z,19.77
2023-02-11T05:10:03.417Z,19.23
2023-02-11T05:12:29.744Z,21.90
2023-02-11T05:14:56.139Z,20.05
2023-02-11T05:17:22.442Z,23.92
2023-02-11T05:19:48.844Z,23.73
2023-02-11T05:22:15.221Z,24.92
2023-02-11T05:24:41.652Z,20.35
2023-02-11T05:27:08.177Z,22.13
2023-02-11T05:29:34.798Z,23.83
2023-02-11T05:32:01.300Z,28.55
2023-02-11T05:34:27.680Z,24.05
2023-02-11T05:36:54.046Z,24.98
2023-02-11T05:39:20.414Z,24.42
2023-02-11T05:41:46.957Z,28.10
2023-02-11T05:44:14.648Z,23.83
2023-02-11T05:46:41.574Z,24.20
2023-02-11T05:49:07.971Z,26.05
2023-02-11T05:51:34.528Z,32.53
2023-02-11T05:54:00.922Z,25.85
2023-02-11T05:56:27.739Z,26.30
2023-02-11T05:58:54.087Z,26.70
2023-02-11T06:01:20.589Z,29.17
2023-02-11T06:03:46.974Z,27.35
2023-02-11T06:06:13.342Z,31.63
2023-02-11T06:08:40.009Z,31.48
2023-02-11T06:11:06.465Z,32.17
2023-02-11T06:13:33.041Z,32.03
2023-02-11T06:16:01.402Z,35.63
2023-02-11T06:18:28.084Z,29.35
2023-02-11T06:20:55.189Z,33.03
2023-02-11T06:23:22.079Z,28.45
2023-02-11T06:25:48.871Z,27.75
2023-02-11T06:28:16.162Z,30.73
2023-02-11T06:30:42.792Z,29.85
2023-02-11T06:33:09.193Z,31.55
2023-02-11T06:35:39.025Z,32.85
2023-02-11T06:38:05.547Z,31.48
2023-02-11T06:40:31.931Z,33.85
2023-02-11T06:42:58.470Z,29.05
2023-02-11T06:45:24.807Z,31.20
2023-02-11T06:47:52.343Z,32.10
2023-02-11T06:50:19.249Z,30.10
2023-02-11T06:52:45.602Z,31.30
2023-02-11T06:55:12.013Z,33.08
2023-02-11T06:57:38.460Z,31.17
2023-02-11T07:00:06.010Z,29.80
2023-02-11T07:02:33.191Z,28.67
2023-02-11T07:04:59.816Z,30.27
2023-02-11T07:07:27.677Z,26.88
2023-02-11T07:09:53.979Z,32.22
2023-02-11T07:12:20.489Z,32.95
2023-02-11T07:14:46.844Z,34.17
2023-02-11T07:17:13.166Z,35.45
2023-02-11T07:19:39.864Z,28.70
2023-02-11T07:22:06.257Z,32.80
2023-02-11T07:24:32.898Z,31.45
2023-02-11T07:26:59.311Z,39.22
2023-02-11T07:29:25.742Z,32.85
2023-02-11T07:31:52.161Z,34.35
2023-02-11T07:34:18.775Z,35.58
2023-02-11T07:36:45.225Z,29.42
2023-02-11T07:39:11.915Z,40.45
2023-02-11T07:41:41.623Z,32.88
2023-02-11T07:44:08.286Z,33.20
2023-02-11T07:46:34.982Z,35.75
2023-02-11T07:49:01.733Z,39.10
2023-02-11T07:51:31.715Z,35.25
2023-02-11T07:54:03.347Z,37.83
2023-02-11T07:56:30.461Z,37.13
2023-02-11T07:59:01.243Z,31.55
2023-02-11T08:01:28.569Z,32.83
2023-02-11T08:04:01.248Z,30.35
2023-02-11T08:06:30.674Z,33.33
2023-02-11T08:08:58.011Z,34.45
2023-02-11T08:11:27.194Z,37.70
2023-02-11T08:13:55.411Z,28.60
2023-02-11T08:16:27.994Z,31.92
2023-02-11T08:18:58.188Z,32.58
2023-02-11T08:21:25.046Z,39.00
2023-02-11T08:23:52.115Z,32.92
2023-02-11T08:26:21.557Z,39.72
2023-02-11T08:28:49.711Z,32.88
2023-02-11T08:31:28.382Z,33.50
2023-02-11T08:33:55.294Z,29.83
2023-02-11T08:36:24.734Z,35.72
2023-02-11T08:38:51.795Z,33.17
2023-02-11T08:41:18.465Z,40.53
2023-02-11T08:43:45.687Z,41.85
2023-02-11T08:46:15.074Z,34.10
2023-02-11T08:48:41.855Z,35.17
2023-02-11T08:51:09.987Z,29.50
2023-02-11T08:53:38.071Z,36.50
2023-02-11T08:56:04.772Z,34.55
2023-02-11T08:58:31.114Z,34.95
2023-02-11T09:00:57.674Z,34.85
2023-02-11T09:03:24.181Z,35.47
2023-02-11T09:05:51.206Z,33.58
2023-02-11T09:08:17.757Z,34.55
2023-02-11T09:10:44.276Z,33.13
2023-02-11T09:13:11.065Z,31.08
2023-02-11T09:15:37.489Z,36.53
2023-02-11T09:18:04.727Z,34.70
2023-02-11T09:20:31.161Z,37.58
2023-02-11T09:22:58.872Z,29.35
2023-02-11T09:25:25.617Z,31.10
2023-02-11T09:27:52.064Z,34.83
2023-02-11T09:30:18.638Z,33.50
2023-02-11T09:32:45.015Z,35.75
2023-02-11T09:35:11.391Z,33.97
2023-02-11T09:37:37.781Z,34.05
2023-02-11T09:40:04.651Z,30.85
2023-02-11T09:42:43.952Z,29.67
2023-02-11T09:45:24.183Z,32.40
2023-02-11T09:48:06.258Z,31.77
2023-02-11T09:50:37.009Z,28.40
2023-02-11T09:55:39.506Z,30.08
2023-02-11T09:58:14.869Z,30.75
2023-02-11T10:00:48.652Z,28.33
2023-02-11T10:03:27.332Z,30.30
2023-02-11T10:06:05.784Z,33.25
2023-02-11T10:08:59.955Z,26.13
2023-02-11T10:11:32.047Z,29.65
2023-02-11T10:14:21.637Z,30.75
2023-02-11T10:16:55.732Z,27.60
2023-02-11T10:19:53.017Z,31.33
2023-02-11T10:22:25.376Z,23.60
2023-02-11T10:24:57.274Z,30.88
2023-02-11T10:27:32.277Z,24.30
2023-02-11T10:30:09.767Z,24.52
2023-02-11T10:32:46.682Z,21.02
2023-02-11T10:35:19.933Z,22.77
2023-02-11T10:37:46.563Z,24.98
2023-02-11T10:40:19.056Z,21.17
2023-02-11T10:42:55.766Z,18.25
2023-02-11T10:45:28.191Z,21.88
2023-02-11T10:47:54.681Z,19.25
2023-02-11T10:50:32.320Z,23.38
2023-02-11T10:53:17.561Z,17.98
2023-02-11T10:56:27.166Z,18.55
2023-02-11T10:59:02.778Z,22.75
2023-02-11T11:01:49.157Z,20.00
2023-02-11T11:04:39.819Z,16.23
2023-02-11T11:07:30.519Z,22.52
2023-02-11T11:10:29.703Z,19.67
2023-02-11T11:12:56.145Z,19.10
2023-02-11T11:15:25.876Z,14.65
2023-02-11T11:18:21.450Z,16.95
2023-02-11T11:20:59.634Z,13.32
2023-02-11T11:23:27.911Z,18.35
2023-02-11T11:26:11.138Z,15.80
2023-02-11T11:28:50.091Z,15.00
2023-02-11T11:31:45.687Z,19.73
2023-02-11T11:34:40.094Z,15.40
2023-02-11T11:37:30.998Z,15.40
2023-02-11T11:40:03.262Z,21.90
2023-02-11T11:42:35.196Z,23.55
2023-02-11T11:45:18.379Z,12.57
2023-02-11T11:47:56.768Z,13.80
2023-02-11T11:50:26.164Z,17.15
2023-02-11T11:53:05.194Z,14.23
2023-02-11T11:55:38.664Z,13.13
2023-02-11T11:58:09.606Z,22.23
2023-02-11T12:01:19.993Z,10.82
2023-02-11T12:04:03.009Z,31.90
2023-02-11T12:06:40.276Z,13.88
2023-02-11T12:09:16.349Z,10.57
2023-02-11T12:12:13.602Z,11.60
2023-02-11T12:14:58.298Z,11.55
2023-02-11T12:17:44.518Z,12.60
2023-02-11T12:20:22.139Z,14.32
2023-02-11T12:23:03.113Z,11.30
2023-02-11T12:25:46.419Z,24.38
2023-02-11T12:28:26.627Z,11.20
2023-02-11T12:31:27.155Z,11.15
2023-02-11T12:34:39.656Z,13.10
2023-02-11T12:37:37.298Z,18.10
2023-02-11T12:40:32.809Z,19.27
2023-02-11T12:43:12.803Z,12.57
2023-02-11T12:46:16.937Z,9.77
2023-02-11T12:48:55.468Z,8.90
2023-02-11T12:51:30.848Z,11.68
2023-02-11T12:54:06.984Z,7.80
2023-02-11T12:56:36.057Z,10.75
2023-02-11T12:59:07.141Z,10.82
2023-02-11T13:01:40.885Z,11.88
2023-02-11T13:04:23.900Z,15.20
2023-02-11T13:07:00.116Z,14.98
2023-02-11T13:12:02.770Z,24.45
2023-02-11T13:14:36.688Z,14.13
2023-02-11T13:17:16.807Z,8.75
2023-02-11T13:19:54.845Z,8.23
2023-02-11T13:22:30.881Z,8.23
2023-02-11T13:25:33.380Z,9.27
2023-02-11T13:28:09.417Z,7.10
2023-02-11T13:30:38.896Z,8.75
2023-02-11T13:33:16.991Z,9.52
2023-02-11T13:36:06.094Z,7.13
2023-02-11T13:38:33.374Z,6.78
2023-02-11T13:41:17.073Z,9.93
2023-02-11T13:43:43.969Z,8.35
2023-02-11T13:46:15.317Z,7.13
2023-02-11T13:48:51.184Z,6.47
2023-02-11T13:51:33.585Z,6.38
2023-02-11T13:54:01.374Z,7.40
2023-02-11T13:56:34.694Z,8.88
2023-02-11T13:59:23.103Z,7.65
2023-02-11T14:01:49.397Z,7.88
2023-02-11T14:04:24.352Z,7.63
2023-02-11T14:07:25.976Z,9.05
2023-02-11T14:09:52.420Z,8.00
2023-02-11T14:12:33.908Z,7.03
2023-02-11T14:15:07.964Z,7.80
2023-02-11T14:17:34.908Z,7.63
2023-02-11T14:20:04.286Z,9.02
2023-02-11T14:22:39.667Z,8.82
2023-02-11T14:25:18.273Z,7.90
2023-02-11T14:28:07.559Z,8.32
2023-02-11T14:30:48.438Z,7.47
2023-02-11T14:33:17.749Z,8.27
2023-02-11T14:36:14.804Z,7.60
2023-02-11T14:39:03.093Z,9.10
2023-02-11T14:41:38.392Z,8.05
2023-02-11T14:44:12.390Z,8.43
2023-02-11T14:46:43.270Z,8.30
2023-02-11T14:49:21.155Z,8.23
2023-02-11T14:51:48.892Z,7.40
2023-02-11T14:54:17.886Z,12.38
2023-02-11T14:56:44.596Z,7.80
2023-02-11T14:59:20.348Z,6.40
2023-02-11T15:01:50.505Z,6.85
2023-02-11T15:04:34.460Z,6.78
2023-02-11T15:07:06.979Z,7.10
2023-02-11T15:09:40.395Z,9.07
2023-02-11T15:12:17.868Z,8.38
2023-02-11T15:14:50.492Z,7.05
2023-02-11T15:17:21.910Z,7.47
2023-02-11T15:19:54.000Z,6.35
2023-02-11T15:22:24.704Z,8.80
2023-02-11T15:24:59.849Z,9.18
2023-02-11T15:27:26.640Z,10.82
2023-02-11T15:29:53.073Z,7.95
2023-02-11T15:32:20.816Z,12.05
2023-02-11T15:34:50.112Z,7.60
2023-02-11T15:37:22.400Z,7.65
2023-02-11T15:39:49.070Z,7.97
2023-02-11T15:42:16.760Z,7.43
2023-02-11T15:44:43.176Z,6.90
2023-02-11T15:47:11.730Z,7.63
2023-02-11T15:49:44.201Z,8.18
2023-02-11T15:52:12.698Z,6.82
2023-02-11T15:54:42.186Z,8.85
2023-02-11T15:57:10.381Z,6.55
2023-02-11T15:59:45.951Z,7.55
2023-02-11T16:02:22.214Z,8.35
2023-02-11T16:05:05.029Z,8.43
2023-02-11T16:07:38.896Z,7.78
2023-02-11T16:10:35.095Z,7.65
2023-02-11T16:13:07.350Z,6.72
2023-02-11T16:15:33.719Z,6.40
2023-02-11T16:18:12.398Z,10.55
2023-02-11T16:20:39.334Z,8.18
2023-02-11T16:23:07.718Z,8.88
2023-02-11T16:25:37.564Z,7.40
2023-02-11T16:28:05.036Z,7.95
2023-02-11T16:30:38.659Z,6.00
2023-02-11T16:33:05.405Z,6.07
2023-02-11T16:35:32.127Z,6.80
2023-02-11T16:37:58.521Z,8.70
2023-02-11T16:40:24.938Z,6.07
2023-02-11T16:42:51.532Z,9.13
2023-02-11T16:45:17.846Z,9.60
2023-02-11T16:47:44.417Z,7.57
2023-02-11T16:50:18.792Z,6.22
2023-02-11T16:52:45.375Z,7.18
2023-02-11T16:55:12.411Z,6.30
2023-02-11T16:57:41.145Z,7.85
2023-02-11T17:00:08.227Z,9.00
2023-02-11T17:02:37.050Z,9.15
2023-02-11T17:05:06.613Z,19.00
2023-02-11T17:07:33.388Z,11.00
2023-02-11T17:10:00.032Z,9.52
2023-02-11T17:12:26.490Z,9.18
2023-02-11T17:14:53.418Z,8.93
2023-02-11T17:17:20.050Z,10.80
2023-02-11T17:19:46.451Z,13.23
2023-02-11T17:22:12.845Z,9.48
2023-02-11T17:24:39.232Z,7.10
2023-02-11T17:27:05.790Z,11.13
2023-02-11T17:29:32.453Z,10.02
2023-02-11T17:31:59.025Z,9.35
2023-02-11T17:34:25.489Z,13.15
2023-02-11T17:36:53.092Z,12.02
2023-02-11T17:39:19.460Z,11.73
2023-02-11T17:41:47.124Z,11.68
2023-02-11T17:44:14.602Z,11.45
2023-02-11T17:46:41.312Z,10.07
2023-02-11T17:49:07.870Z,11.27
2023-02-11T17:51:37.150Z,10.57
2023-02-11T17:54:07.821Z,12.18
2023-02-11T17:59:01.922Z,9.90
2023-02-11T18:01:29.823Z,9.70
2023-02-11T18:03:56.358Z,8.02
2023-02-11T18:06:22.910Z,11.80
2023-02-11T18:08:49.457Z,9.32
2023-02-11T18:11:16.402Z,10.05
2023-02-11T18:13:44.201Z,11.05
2023-02-11T18:16:11.217Z,12.57
2023-02-11T18:18:39.403Z,10.13
2023-02-11T18:21:06.215Z,10.98
2023-02-11T18:23:32.633Z,11.02
2023-02-11T18:25:58.965Z,9.60
2023-02-11T18:28:25.464Z,10.93
2023-02-11T18:30:59.465Z,18.25
2023-02-11T18:33:26.740Z,11.32
2023-02-11T18:35:53.614Z,12.02
2023-02-11T18:38:20.168Z,9.30
2023-02-11T18:40:46.628Z,9.00
2023-02-11T18:43:18.387Z,11.05
2023-02-11T18:45:49.385Z,8.82
2023-02-11T18:48:17.419Z,10.93
2023-02-11T18:50:45.480Z,10.63
2023-02-11T18:53:13.463Z,9.13
2023-02-11T18:55:44.260Z,9.20
2023-02-11T18:58:11.479Z,10.80
2023-02-11T19:00:40.698Z,13.63
2023-02-11T19:03:07.101Z,10.88
2023-02-11T19:05:50.075Z,9.77
2023-02-11T19:08:17.125Z,9.98
2023-02-11T19:10:46.708Z,11.02
2023-02-11T19:13:14.010Z,9.40
2023-02-11T19:15:43.622Z,10.68
2023-02-11T19:18:11.339Z,11.98
2023-02-11T19:20:42.917Z,11.88
2023-02-11T19:23:10.336Z,10.70
2023-02-11T19:25:37.043Z,11.15
2023-02-11T19:28:03.642Z,9.70
2023-02-11T19:30:30.643Z,13.57
2023-02-11T19:32:57.133Z,12.25
2023-02-11T19:35:24.761Z,12.60
2023-02-11T19:37:51.409Z,9.90
2023-02-11T19:40:18.317Z,10.13
2023-02-11T19:42:44.817Z,11.52
2023-02-11T19:45:11.264Z,10.15
2023-02-11T19:47:37.627Z,8.82
2023-02-11T19:50:05.681Z,12.18
2023-02-11T19:52:32.198Z,12.27
2023-02-11T19:55:00.535Z,9.82
2023-02-11T19:57:26.927Z,13.65
2023-02-11T19:59:53.345Z,14.38
2023-02-11T20:04:53.689Z,10.63
2023-02-11T20:07:20.198Z,14.43
2023-02-11T20:09:46.569Z,11.65
2023-02-11T20:12:13.136Z,11.00
2023-02-11T20:14:39.568Z,12.50
2023-02-11T20:17:06.093Z,10.15
2023-02-11T20:19:32.545Z,9.88
2023-02-11T20:21:59.122Z,9.27
2023-02-11T20:32:32.739Z,9.77
2023-02-11T20:34:59.293Z,13.57
2023-02-11T20:37:25.811Z,12.23
2023-02-11T20:39:52.458Z,11.77
2023-02-11T20:42:18.906Z,11.00
2023-02-11T20:44:45.263Z,12.13
2023-02-11T20:47:12.187Z,13.00
2023-02-11T20:49:38.568Z,13.38
2023-02-11T20:52:04.888Z,11.98
2023-02-11T20:54:31.298Z,13.82
2023-02-11T20:56:57.619Z,14.48
2023-02-11T20:59:24.933Z,11.75
2023-02-11T21:01:53.944Z,14.10
2023-02-11T21:04:26.553Z,17.60
2023-02-11T21:06:56.050Z,12.60
2023-02-11T21:09:26.232Z,14.02
2023-02-11T21:11:53.798Z,13.32
2023-02-11T21:14:22.405Z,13.10
2023-02-11T21:16:49.564Z,16.40
2023-02-11T21:19:17.082Z,17.40
2023-02-11T21:21:44.132Z,13.35
2023-02-11T21:24:11.543Z,17.42
2023-02-11T21:26:38.986Z,14.98
2023-02-11T21:29:07.336Z,15.10
2023-02-11T21:31:34.749Z,16.23
2023-02-11T21:34:01.503Z,16.10
2023-02-11T21:36:28.991Z,15.73
2023-02-11T21:38:55.527Z,14.20
2023-02-11T21:41:22.204Z,13.77
2023-02-11T21:43:50.041Z,14.98
2023-02-11T21:46:16.961Z,20.33
2023-02-11T21:48:43.501Z,17.30
2023-02-11T21:51:14.434Z,17.13
2023-02-11T21:53:41.172Z,16.30
2023-02-11T21:56:10.861Z,18.27
2023-02-11T21:58:38.352Z,15.38
2023-02-11T22:01:16.596Z,18.02
2023-02-11T22:03:43.640Z,17.27
2023-02-11T22:06:19.190Z,16.58
2023-02-11T22:08:45.606Z,18.27
2023-02-11T22:11:12.611Z,15.90
2023-02-11T22:13:40.517Z,16.23
2023-02-11T22:16:13.640Z,16.23
2023-02-11T22:18:41.115Z,18.08
2023-02-11T22:21:12.076Z,16.15
2023-02-11T22:23:39.408Z,18.38
2023-02-11T22:26:17.869Z,16.55
2023-02-11T22:28:44.663Z,15.52
2023-02-11T22:31:25.559Z,16.63
2023-02-11T22:33:52.168Z,30.98
2023-02-11T22:36:21.892Z,47.80
2023-02-11T22:38:48.590Z,92.60
2023-02-11T22:41:15.922Z,61.40
2023-02-11T22:43:43.745Z,32.90
2023-02-11T22:46:13.732Z,28.95
2023-02-11T22:48:40.364Z,19.65
2023-02-11T22:51:08.294Z,23.77
2023-02-11T22:53:35.375Z,19.30
2023-02-11T22:56:06.916Z,15.48
2023-02-11T22:58:35.131Z,17.85
2023-02-11T23:01:01.956Z,14.70
2023-02-11T23:03:28.685Z,15.77
2023-02-11T23:05:58.245Z,14.10
2023-02-11T23:08:24.835Z,18.98
2023-02-11T23:10:51.375Z,17.60
2023-02-11T23:13:17.930Z,18.23
2023-02-11T23:15:45.618Z,15.30
2023-02-11T23:18:13.239Z,18.98
2023-02-11T23:20:42.445Z,19.38
2023-02-11T23:23:09.002Z,15.70
2023-02-11T23:25:41.409Z,17.35
2023-02-11T23:28:07.919Z,15.35
2023-02-11T23:30:34.447Z,17.83
2023-02-11T23:33:00.916Z,16.77
2023-02-11T23:35:27.311Z,18.52
2023-02-11T23:37:53.946Z,19.63
2023-02-11T23:40:21.518Z,19.05
2023-02-11T23:42:47.940Z,18.08
2023-02-11T23:45:14.896Z,17.67
2023-02-11T23:47:41.414Z,19.27
2023-02-11T23:50:09.422Z,19.95
2023-02-11T23:52:35.901Z,20.05
2023-02-11T23:55:02.344Z,20.00
2023-02-11T23:57:28.802Z,20.73
2023-02-11T23:59:55.477Z,17.95
